Listado único de aspirantes (Periodo de valoración 31 octubre de 2020)


* Listado ordenado por el total Autobaremo. Recuerde que también puede ordenarlo por Apellidos, Nombre

Listado único de aspirantes admitidos en turno libre en la bolsa de selección de personal estatutario temporal, categoría: FEA Anatomía Patológica
Apellidos, Nombre Exp. SAS Auto. Exp. NO SAS Auto. Form. Auto. otros méritos Total Auto. Exp. SAS Baremo Exp. NO SAS Baremo Form. Baremo Otros méritos Punt. Total Baremo Fecha Act.
MORENO GARCIA, MARIA ISABEL 69,650 1,250 55,000 11,700 136,700 69,650 1,250 54,900 11,600 136,500 21/07/2021
CABRERA PÉREZ, ROCÍO 60,700 0,600 55,000 20,000 136,300 60,700 0,000 55,000 8,050 123,750 21/07/2021
JURADO ESCÁMEZ, PILAR 56,700 8,400 55,000 15,225 135,325 56,700 8,400 50,800 14,625 130,525 21/07/2021
BECERRA MASSARE, PATRICIA 66,300 1,200 55,000 12,575 135,075 66,300 1,200 41,875 8,875 118,250 21/07/2021
ORTEGA JIMENEZ, MARIA VICTORIA 60,900 1,200 55,000 16,475 133,575 60,900 1,200 55,000 14,550 131,650 21/07/2021
ZULUETA DORADO, TERESA DE 62,700 0,000 55,000 15,025 132,725 62,700 0,000 35,175 11,725 109,600 21/07/2021
PALACIOS RODRIGUEZ, SEBASTIAN 70,000 0,250 55,000 7,175 132,175 70,000 0,000 42,150 6,750 118,900 21/07/2021
JIMENEZ MARTIN, JUAN JESUS 63,600 3,900 55,000 9,100 131,600 63,600 3,900 40,350 8,500 116,350 21/07/2021
VICIANA MARTINEZ-LAGE, Mª JOSE 16,800 73,200 55,000 6,075 131,075 16,800 33,600 37,225 4,875 92,500 21/07/2021
CHINCHÓN ESPINO, DAVID 56,100 0,300 55,000 16,550 127,950 56,100 0,300 40,375 15,600 112,375 21/07/2021
FERNANDEZ MACHIN, PILAR 0,000 83,400 49,675 7,950 127,625 0,000 62,100 45,275 7,250 114,625 21/07/2021
MARTÍN CASTRO, AURELIO MARCOS 63,300 0,900 55,000 7,950 127,150 63,300 0,900 55,000 7,250 126,450 21/07/2021
SEGURA SANCHEZ, JUAN MANUEL 12,900 45,000 55,000 14,125 127,025 12,900 30,300 55,000 13,800 112,000 21/07/2021
AÑON REQUENA, MARIA JOSE 55,200 0,000 55,000 16,225 126,425 55,200 0,000 55,000 16,125 126,325 21/07/2021
GALLEGO DOMINGUEZ, ELENA 50,400 0,000 55,000 18,725 124,125 50,400 0,000 55,000 18,625 124,025 21/07/2021
MARCILLA PLAZA, DAVID 52,800 0,000 55,000 15,850 123,650 52,800 0,000 55,000 12,975 120,775 21/07/2021
MERINO MONTES, JULIO 0,000 56,100 55,000 12,075 123,175 0,000 18,900 45,500 10,375 74,775 21/07/2021
CHAMORRO SANTOS, CLARA EUGENIA 63,300 0,150 55,000 4,000 122,450 63,300 0,150 43,950 2,475 109,875 21/07/2021
RAMOS PLEGUEZUELOS, FRANCISCO MANUEL 53,700 0,000 55,000 12,850 121,550 53,700 0,000 55,000 12,075 120,775 21/07/2021
JIMENEZ PEÑA, RAQUEL 50,400 16,500 45,950 8,000 120,850 50,400 16,500 33,750 7,750 108,400 21/07/2021
SÁEZ CASTILLO, ANA ISABEL 9,600 48,100 55,000 7,925 120,625 9,600 39,600 48,900 6,225 104,325 21/07/2021
LÓPEZ GARCÍA, Mª ANGELES 39,900 11,700 55,000 13,900 120,500 39,900 11,700 55,000 13,600 120,200 21/07/2021
PÉREZ VILLA, LIDIA 36,900 8,400 55,000 20,000 120,300 36,900 0,000 55,000 19,950 111,850 21/07/2021
RUIZ MOLINA, INMACULADA 48,000 0,000 55,000 17,300 120,300 48,000 0,000 55,000 14,250 117,250 21/07/2021
ARRANZ SALAS, ISABEL Mª 27,300 23,400 55,000 14,325 120,025 27,300 10,800 55,000 13,075 106,175 21/07/2021
ROMERO ORTIZ, ANA ISABEL 52,500 0,000 55,000 12,275 119,775 52,500 0,000 47,475 11,800 111,775 21/07/2021
PRIETO SÁNCHEZ, MARIA ELISA 52,500 0,000 55,000 12,025 119,525 52,500 0,000 55,000 12,025 119,525 21/07/2021
DÍAZ LAGAMA, ANA Mª 56,700 1,200 55,000 5,550 118,450 56,700 1,200 43,300 5,375 106,575 21/07/2021
ELOY-GARCIA CARRASCO, CARMEN 0,000 49,800 55,000 12,600 117,400 0,000 36,300 42,575 11,050 89,925 21/07/2021
SÁNCHEZ BERNAL, MARÍA LUISA 46,500 2,700 55,000 11,650 115,850 46,500 2,700 55,000 11,625 115,825 21/07/2021
ANEIROS FERNANDEZ, JOSE 40,500 0,000 55,000 20,000 115,500 40,500 0,000 55,000 20,000 115,500 21/07/2021
SALINAS MARTIN, MANUEL VICENTE 37,340 0,000 55,000 19,850 112,190 37,340 0,000 33,800 8,175 79,315 21/07/2021
LEON FRADEJAS, MYRIAM 40,200 3,000 55,000 12,900 111,100 40,200 0,000 52,525 11,125 103,850 21/07/2021
ROBLES FRÍAS, MARÍA JOSÉ 1,400 45,900 55,000 8,800 111,100 1,400 24,000 46,400 7,700 79,500 21/07/2021
ROBLES CABEZA, LUIS 0,000 69,600 39,075 1,275 109,950 0,000 69,600 35,500 0,625 105,725 21/07/2021
PORRAS HIDALGO, VIRGINIA 58,715 1,850 37,200 12,175 109,940 58,715 0,000 30,375 9,450 98,540 21/07/2021
PEREIRA GALLARDO, SOFIA 40,200 0,000 55,000 13,325 108,525 40,200 0,000 51,175 5,475 96,850 21/07/2021
VALLEJO BENITEZ, ANA MARIA 38,750 0,000 55,000 12,425 106,175 38,750 0,000 55,000 11,050 104,800 21/07/2021
OLALLA GALLARDO, JOSE MARIA 0,000 42,300 55,000 8,250 105,550 0,000 31,500 25,000 6,000 62,500 21/07/2021
PASTRANA MEJIA, GLORIA ALEXANDRA 40,800 1,500 55,000 7,850 105,150 40,800 1,500 44,425 6,525 93,250 21/07/2021
MUÑOZ ZEA, RAQUEL 9,600 36,000 55,000 4,250 104,850 9,600 34,800 43,050 4,175 91,625 21/07/2021
GARCIA MUÑOZ, ISABEL 34,200 3,000 55,000 11,775 103,975 34,200 3,000 55,000 10,800 103,000 21/07/2021
BERENGUEL IBAÑEZ, MARIA DEL MAR 37,250 0,000 55,000 11,225 103,475 37,250 0,000 49,250 11,175 97,675 21/07/2021
SÁNCHEZ ARCA, Mª EUGENIA 17,400 30,350 52,200 2,850 102,800 17,400 30,300 41,300 1,900 90,900 21/07/2021
OCAÑA CASTILLO, BEATRIZ 0,000 42,000 55,000 5,450 102,450 0,000 42,000 55,000 4,750 101,750 21/07/2021
RÍO SUÁREZ, MERCEDES 0,000 53,700 41,875 6,625 102,200 0,000 0,000 29,600 3,875 33,475 21/07/2021
GONZALEZ MENCHEN, ALBERTO 38,400 0,000 55,000 8,275 101,675 38,400 0,000 41,225 8,075 87,700 21/07/2021
ÁVILA POLO, ROGELIO RAINIERO 27,900 3,000 55,000 15,175 101,075 27,900 0,000 55,000 11,075 93,975 21/07/2021
UMBRÍA JIMÉNEZ, SEBASTIÁN 37,500 0,000 55,000 8,525 101,025 37,500 0,000 48,000 7,675 93,175 21/07/2021
CABA MOLINA, MERCEDES 29,400 0,000 55,000 16,300 100,700 29,400 0,000 55,000 16,275 100,675 21/07/2021
SANCHEZ FRIAS, MARINA ESTHER 34,800 0,000 55,000 10,325 100,125 34,800 0,000 37,725 7,950 80,475 21/07/2021
MURIEL CUETO, PEDRO JESUS 14,350 21,000 55,000 9,750 100,100 14,350 18,000 47,650 9,200 89,200 21/07/2021
FONTILLON ALBERDI, MARIA 31,510 3,300 55,000 9,950 99,760 31,510 3,300 39,800 8,300 82,910 21/07/2021
MÁRQUEZ LOBO, BÉLGICA 35,100 0,000 55,000 8,275 98,375 35,100 0,000 36,625 6,725 78,450 21/07/2021
RANEA JIMENA, SERGIO ANTONIO 35,100 0,000 55,000 7,275 97,375 35,100 0,000 55,000 6,800 96,900 21/07/2021
GARCÍA SALGUERO, ANA ISABEL 26,100 7,800 55,000 8,375 97,275 26,100 7,800 55,000 7,650 96,550 21/07/2021
MELLADO SORIA, JOSÉ MANUEL 27,000 4,100 55,000 9,675 95,775 27,000 4,100 55,000 9,325 95,425 21/07/2021
MORA CABEZAS, MONTSERRAT 27,950 0,000 55,000 12,050 95,000 27,950 0,000 55,000 10,325 93,275 21/07/2021
GARRIDO HIJANO, ESTEFANIA 22,850 14,100 55,000 2,225 94,175 22,850 13,800 33,875 0,700 71,225 21/07/2021
CÍVICO AMAT, VICENTE 34,500 0,000 55,000 4,600 94,100 34,500 0,000 37,400 3,550 75,450 21/07/2021
RÍOS PELEGRINA, ROSA MARÍA 26,400 0,000 55,000 12,525 93,925 26,400 0,000 55,000 10,050 91,450 21/07/2021
LLAMAS PÉREZ, MARIA DE LAS MERCEDE 34,500 0,000 55,000 4,275 93,775 34,500 0,000 30,500 3,600 68,600 21/07/2021
SANCHEZ MEDIANERO, MARIA TERESA 25,500 5,700 55,000 6,875 93,075 25,500 5,700 55,000 6,500 92,700 21/07/2021
CARO CUENCA, MARIA TERESA 26,200 1,600 55,000 10,250 93,050 26,200 0,850 55,000 9,350 91,400 21/07/2021
RONQUILLO RUBIO, ARACELI 0,465 29,900 55,000 6,800 92,165 0,465 23,300 30,150 6,750 60,665 21/07/2021
PEREDA SALGUERO, MARIA TERESA 2,100 32,700 48,325 8,100 91,225 2,100 32,700 42,350 2,500 79,650 21/07/2021
MARTINEZ ORTIZ, FERNANDO 28,915 1,650 55,000 4,650 90,215 28,915 1,400 55,000 3,900 89,215 21/07/2021
PRIETO CUADRA, JUAN DANIEL 20,400 0,000 55,000 14,400 89,800 20,400 0,000 55,000 12,900 88,300 21/07/2021
CASCO CLARO, FERNANDO GABRIEL 11,700 32,100 40,000 5,875 89,675 11,700 0,000 6,000 0,000 17,700 21/07/2021
HERNÁNDEZ AMATE, ALICIA 0,000 23,400 55,000 11,100 89,500 0,000 20,400 38,150 7,600 66,150 21/07/2021
DURÁN IZQUIERDO, ELENA AMALIA 26,350 0,850 55,000 7,000 89,200 26,350 0,750 30,525 6,600 64,225 21/07/2021
SANCHEZ SANCHEZ, RAFAEL 19,500 0,150 55,000 14,300 88,950 19,500 0,150 28,600 9,525 57,775 21/07/2021
CRESPO LORA, VICENTE 20,100 0,000 55,000 13,375 88,475 20,100 0,000 47,750 12,575 80,425 21/07/2021
SÁNCHEZ GONZÁLEZ, JOSÉ JOAQUÍN 9,900 21,600 55,000 0,525 87,025 9,900 0,000 33,000 0,400 43,300 21/07/2021
PREDA -, OVIDIU 18,000 0,000 55,000 13,800 86,800 18,000 0,000 55,000 10,250 83,250 21/07/2021
DEL PRADO ALBA, CARMEN MARÍA 23,700 0,000 55,000 7,375 86,075 23,700 0,000 55,000 6,900 85,600 21/07/2021
ESTRADA CANJURA, DENIS GERARDO 15,900 11,700 55,000 3,300 85,900 15,900 9,000 55,000 3,300 83,200 21/07/2021
MARTÍNEZ LÓPEZ, AZAHARA 0,000 22,200 55,000 7,175 84,375 0,000 18,600 55,000 6,400 80,000 21/07/2021
LAVADO FERNÁNDEZ, ANA ISABEL 9,300 7,200 55,000 12,725 84,225 9,300 7,200 55,000 6,925 78,425 21/07/2021
SCOCCO NO, SERENA 19,200 0,150 55,000 9,825 84,175 19,200 0,000 50,450 8,200 77,850 21/07/2021
CASQUERO ROMERO, SANTIAGO 25,500 0,000 55,000 2,125 82,625 25,500 0,000 25,000 1,600 52,100 21/07/2021
GONZALEZ CANTON, JOAQUIN ROBERTO 14,300 13,500 48,050 4,525 80,375 14,300 13,500 28,950 3,925 60,675 21/07/2021
GIL LIÑAN, ANA ISABEL 0,000 20,100 55,000 4,250 79,350 0,000 10,800 45,500 4,200 60,500 21/07/2021
JIRONDA GALLEGOS, Mª CONCEPCIÓN 3,600 13,200 55,000 5,725 77,525 3,600 13,200 50,050 5,325 72,175 21/07/2021
NIEVAS SORIANO, MATILDE AMPARO 14,550 2,750 55,000 5,150 77,450 14,550 1,200 36,500 4,200 56,450 21/07/2021
SÁNCHEZ BUENO, VÍCTOR MANUEL 0,300 20,700 55,000 0,750 76,750 0,300 1,800 55,000 0,725 57,825 21/07/2021
CORRALES MATEO, DAVID 16,580 0,000 55,000 4,525 76,105 16,580 0,000 55,000 4,475 76,055 21/07/2021
ANTÚNEZ INFANTE, ALEJANDRO 0,000 19,200 55,000 1,750 75,950 0,000 19,200 25,775 0,550 45,525 21/07/2021
CIVANTOS JUBERA, GEMA 14,400 1,300 55,000 4,850 75,550 14,400 1,300 41,950 3,850 61,500 21/07/2021
GUTIERREZ DOMINGO, ALVARO 13,200 0,000 55,000 6,725 74,925 13,200 0,000 48,350 6,425 67,975 21/07/2021
RODRIGUEZ ZARCO, ENRIQUE 12,900 0,000 55,000 7,025 74,925 12,900 0,000 31,500 4,725 49,125 21/07/2021
BARAYOBRE BARAYOBRE, MATIAS 34,750 0,000 38,825 0,050 73,625 34,750 0,000 25,000 0,050 59,800 21/07/2021
LOPEZ SANCHEZ, JORGE 2,400 27,300 41,450 2,200 73,350 2,400 9,300 25,000 1,275 37,975 21/07/2021
RODRÍGUEZ CAULO, ADRIÁN PABLO 6,300 6,450 55,000 5,575 73,325 6,300 5,400 55,000 5,025 71,725 21/07/2021
CASTILLO SANCHEZ-HEREDERO, ESTEBAN 31,500 0,000 38,725 3,000 73,225 31,500 0,000 25,000 3,000 59,500 21/07/2021
MINORE MINORE, NATALIA BRENDA PAMEL 14,600 0,000 55,000 3,125 72,725 14,600 0,000 51,900 3,125 69,625 21/07/2021
MOLINA JIMENEZ, LUCIA ENCARNACION 13,500 0,000 55,000 4,100 72,600 13,500 0,000 52,700 3,925 70,125 21/07/2021
MAIRA GONAZALEZ, NIEVES 12,885 0,000 55,000 4,400 72,285 12,885 0,000 36,600 3,425 52,910 21/07/2021
DÁVILA GUERRA, JULIA 13,500 0,000 55,000 3,450 71,950 13,500 0,000 33,550 3,350 50,400 21/07/2021
OLEA BARRIONUEVO, DELFINA 6,115 8,350 55,000 2,475 71,940 6,115 0,000 35,200 2,175 43,490 21/07/2021
SOLÓRZANO MARISCAL, ROCÍO 9,900 0,000 55,000 5,725 70,625 9,900 0,000 55,000 5,425 70,325 21/07/2021
VALENZUELA SERRANO, MIGUEL 4,800 4,100 55,000 6,725 70,625 4,800 0,000 51,750 4,575 61,125 21/07/2021
GONZALEZ ZAFRA, VIRGINIA 1,400 11,400 55,000 2,575 70,375 1,400 11,400 38,300 1,200 52,300 21/07/2021
GONZALEZ SANCHEZ, JUAN FRANCISCO 9,300 3,300 55,000 1,125 68,725 9,300 3,300 38,700 0,475 51,775 21/07/2021
BATALLA FERNANDEZ, MARIANA FERNANDA 0,000 13,800 54,000 0,450 68,250 0,000 0,000 25,000 0,325 25,325 21/07/2021
RUZ CARACUEL, IGNACIO 0,000 6,000 55,000 7,150 68,150 0,000 6,000 53,100 4,550 63,650 21/07/2021
GUTIERREZ CIERCO, JUAN LUIS 0,000 9,600 54,000 4,225 67,825 0,000 9,600 31,900 3,400 44,900 21/07/2021
MATEO VICO, OLGA MARIA 0,000 11,700 55,000 0,700 67,400 0,000 11,700 28,100 0,550 40,350 21/07/2021
GONZÁLEZ GALLEGO, MARÍA DEL CARMEN 10,550 0,000 55,000 1,700 67,250 10,550 0,000 38,400 0,175 49,125 21/07/2021
GUERRERO SÁNCHEZ, Mª ENCARNACIÓN 7,200 3,300 55,000 1,650 67,150 7,200 0,000 33,000 0,975 41,175 21/07/2021
MANZOTTI ., CAROLINA 2,100 6,600 55,000 3,300 67,000 2,100 0,600 34,850 2,850 40,400 21/07/2021
IZURRATEGUI HIDALGO, MARIA ESTHER 11,100 12,900 42,175 0,300 66,475 11,100 0,000 25,950 0,300 37,350 21/07/2021
VIDAL JIMÉNEZ, ALFREDO 1,800 0,750 55,000 8,850 66,400 1,800 0,000 25,000 3,150 29,950 21/07/2021
DE ELENA SOTO, MARIA DEL MAR 0,100 15,600 46,125 3,300 65,125 0,100 0,000 25,000 3,150 28,250 21/07/2021
SANZ TRENADO, JOSE LUIS 0,000 6,000 55,000 4,100 65,100 0,000 6,000 40,000 3,650 49,650 21/07/2021
MARTÍNEZ LÓPEZ, ANA 6,300 0,000 55,000 2,600 63,900 6,300 0,000 28,700 1,000 36,000 21/07/2021
SÁNCHEZ GÓMEZ, ANA 3,000 4,350 52,750 3,475 63,575 3,000 0,000 25,075 1,225 29,300 21/07/2021
MORENO RAMOS, ANTONIA 2,100 0,000 55,000 5,975 63,075 2,100 0,000 25,000 4,650 31,750 21/07/2021
AYALA BLANCA, MARIA 15,500 0,000 41,150 5,700 62,350 15,500 0,000 37,150 5,500 58,150 21/07/2021
SABIO GONZALEZ, ADELA 6,300 0,000 55,000 0,800 62,100 6,300 0,000 55,000 0,800 62,100 21/07/2021
PASCUAL-VACA GÓMEZ, DIEGO 4,950 0,000 55,000 1,975 61,925 4,950 0,000 35,850 1,200 42,000 21/07/2021
SERRANO FALCÓN, MARÍA DEL MAR 2,100 0,000 54,800 4,750 61,650 2,100 0,000 30,275 3,250 35,625 21/07/2021
ROLDÁN MATEO, LUCÍA 5,100 0,000 55,000 1,200 61,300 5,100 0,000 53,700 0,850 59,650 21/07/2021
COZAR GRANJA, TOMAS JESUS 0,000 33,600 27,250 0,000 60,850 0,000 22,800 25,000 0,000 47,800 21/07/2021
PANIZA MENDOZA, M.ANGELES 0,000 5,100 55,000 0,600 60,700 0,000 1,200 25,000 0,200 26,400 21/07/2021
ESCUDERO SEVERIN, CARLOS 3,300 30,100 26,150 0,950 60,500 3,300 0,000 25,000 0,000 28,300 21/07/2021
MANZANO PEÑA, MAARIA TERESA 0,000 24,300 35,700 0,150 60,150 0,000 0,000 29,700 0,150 29,850 21/07/2021
VIEDMA MARTIN, ANA SARA 2,050 0,000 55,000 2,850 59,900 2,050 0,000 51,800 1,175 55,025 21/07/2021
RUEDA VILLAFRANCA, BEATRIZ 10,200 0,000 45,150 4,500 59,850 10,200 0,000 39,150 4,150 53,500 21/07/2021
MULLOR NOGALES, RAQUEL 0,000 13,500 43,725 2,250 59,475 0,000 8,700 33,875 0,750 43,325 21/07/2021
MORENO RAMÍREZ, VANESSA 2,100 0,000 55,000 2,275 59,375 2,100 0,000 29,050 1,525 32,675 21/07/2021
MUÑOZ ARIAS, MARÍA DEL MAR 2,100 1,400 55,000 0,575 59,075 2,100 0,000 36,000 0,150 38,250 21/07/2021
TALAVERA RODRIGUEZ, PALOMA 0,000 2,500 51,500 4,350 58,350 0,000 0,000 29,075 1,550 30,625 21/07/2021
DOÑA GIRÓN, JAVIER 1,000 0,000 55,000 1,200 57,200 1,000 0,000 55,000 0,850 56,850 21/07/2021
CANTÓN YEBRA, MARÍA TERESA 6,300 0,000 50,450 0,400 57,150 6,300 0,000 29,600 0,400 36,300 21/07/2021
BENITO LÓPEZ, DULCENOMBRE 14,100 2,400 34,600 5,400 56,500 14,100 2,100 25,500 3,850 45,550 21/07/2021
LORIDO CORTÉS, MARÍA DEL MAR 0,150 4,800 47,500 3,425 55,875 0,150 4,500 27,000 3,225 34,875 21/07/2021
OLALLA ROSA, M ROCIO 7,500 0,000 44,250 3,650 55,400 7,500 0,000 28,600 3,650 39,750 21/07/2021
MARTÍNEZ DE MANDOJAN PÉREZ, ANA Mª 3,300 1,800 48,750 0,700 54,550 3,300 1,800 27,000 0,400 32,500 21/07/2021
MILLÁN ORTEGA, IRENE 9,300 0,000 43,000 0,925 53,225 9,300 0,000 27,400 0,750 37,450 21/07/2021
GOROSTIAGA ALTUNA, IÑIGO 0,300 0,000 50,450 2,275 53,025 0,300 0,000 25,200 1,050 26,550 21/07/2021
MARÍN SALIDO, ESTEBAN JOSÉ 20,700 0,000 28,650 3,150 52,500 20,700 0,000 27,000 3,150 50,850 21/07/2021
RODRÍGUEZ AGUILAR, RAÚL 0,050 9,000 38,200 4,600 51,850 0,050 1,500 31,000 0,650 33,200 21/07/2021
BERZAL CANTALEJO, Mª FERNANDA 0,580 17,700 29,175 2,000 49,455 0,580 1,200 27,000 0,800 29,580 21/07/2021
CANO BARBADILLA, TATIANA 8,100 0,000 37,050 3,750 48,900 8,100 0,000 31,000 3,750 42,850 21/07/2021
BENÍTEZ GARCÍA, MARÍA DEL CARMEN 15,900 10,500 18,608 3,200 48,208 15,900 0,000 9,908 3,200 29,008 21/07/2021
CASTILLO MARTÍNEZ, MARIA JOSÉ 1,200 0,000 46,750 0,175 48,125 1,200 0,000 34,500 0,175 35,875 21/07/2021
MERCADO GUTIERREZ, MARIA DEL ROSARIO 0,000 1,200 43,025 3,100 47,325 0,000 0,300 25,000 1,100 26,400 21/07/2021
GUARDA MURATORI, GONZALO ARIEL 0,000 0,200 46,150 0,800 47,150 0,000 0,000 26,775 0,625 27,400 21/07/2021
RUIZ-MATEOS QUIRÓS, RUBEN 6,000 2,500 37,725 0,000 46,225 6,000 0,000 25,975 0,000 31,975 21/07/2021
PICHARDO LÓPEZ DE HARO, FRANCISCO 15,650 2,750 27,250 0,000 45,650 15,650 1,350 27,250 0,000 44,250 21/07/2021
GONZALEZ CORENA, YISELA PATRICIA 10,500 0,000 34,050 0,500 45,050 10,500 0,000 34,050 0,350 44,900 21/07/2021
ALCONCHEL GONZAGA, SILVIA PATRICIA 4,650 2,700 36,250 0,750 43,900 4,650 0,000 25,200 0,450 30,300 21/07/2021
GARCIA GOMEZ, NATALIA 0,300 0,300 38,375 2,250 41,225 0,300 0,000 32,000 1,100 33,400 21/07/2021
TELLO COLLANTES, KARLA 6,975 1,000 30,950 0,700 39,625 6,975 0,000 25,000 0,400 32,375 21/07/2021
MORO CÁRDENAS, Mª CINTA 0,100 5,400 30,750 3,275 39,525 0,100 0,000 28,950 3,200 32,250 21/07/2021
FERNÁNDEZ DEL CORRAL, MARÍA REMEDIOS 6,200 0,000 33,100 0,200 39,500 6,200 0,000 27,900 0,200 34,300 21/07/2021
SOTILLO SANCHEZ, RICARDO 2,100 0,300 33,750 3,100 39,250 2,100 0,300 31,000 3,100 36,500 21/07/2021
PABÓN CARRASCO, SARA 0,600 7,200 25,000 4,500 37,300 0,600 7,200 25,000 4,500 37,300 21/07/2021
MAESTRO SARRION, ELENA 4,200 0,100 31,625 0,825 36,750 4,200 0,000 25,000 0,350 29,550 21/07/2021
NARCISO REPILADO, GEMA 1,200 0,000 30,000 0,500 31,700 1,200 0,000 25,000 0,500 26,700 21/07/2021
MARTINEZ QUINTANA, EVA MARIA 0,000 0,000 28,600 3,000 31,600 0,000 0,000 26,475 3,000 29,475 21/07/2021
BAUTISTA VERA, NATALIA 4,200 0,200 26,100 0,300 30,800 4,200 0,000 25,000 0,300 29,500 21/07/2021
ALVAREZ MANCHA, ANA ISABEL 1,800 0,000 25,000 1,825 28,625 1,800 0,000 25,000 0,525 27,325 21/07/2021
GIL JASSOGNE, CRISTINA 0,100 0,800 27,000 0,000 27,900 0,100 0,000 25,000 0,000 25,100 21/07/2021
NARVÁEZ SIMÓN, MARÍA 0,900 0,000 26,000 0,925 27,825 0,900 0,000 25,000 0,850 26,750 21/07/2021
DOMÍNGUEZ MIRANDA, JOSÉ LUIS 0,900 0,000 25,000 0,000 25,900 0,900 0,000 25,000 0,000 25,900 21/07/2021


Color de candidatos/as que por autobaremo alcanzan puntuación mínima para formar parte de la bolsa Candidatos/as que por autobaremo alcanzan puntuación mínima para formar parte de la bolsa

Color de Candidatos/as que no alcanzan puntuación mínima para formar parte de la bolsa Candidatos/as que no alcanzan puntuación mínima para formar parte de la bolsa



[Volver]